Terminal Aerodrome Forecast
Issued by NWS

Home | Current Version | Previous Version | Text Only | Print | Product List | Glossary On
Versions: 1 2 3 4 5 6 7 8 9 10 11 12 13 14 15
000
FTUS42 KTBW 270217 AAA
TAFRSW
TAF AMD
KRSW 270217Z 2702/2724 VRB05KT P6SM VCTS SCT035CB BKN100
     FM270500 VRB04KT P6SM FEW030 BKN200
     FM271600 28006KT P6SM SCT035
     FM271900 28010KT P6SM VCTS SCT035CB=

USA.gov is the U.S. government's official web portal to all federal, state and local government web resources and services.